sensor_id;sensor_type;location;lat;lon;timestamp;temperature;humidity
26081;DHT22;13991;51.174;4.438;2024-03-08T00:02:07;7.10;99.90
26081;DHT22;13991;51.174;4.438;2024-03-08T00:04:33;7.00;99.90
26081;DHT22;13991;51.174;4.438;2024-03-08T00:06:59;6.90;99.90
26081;DHT22;13991;51.174;4.438;2024-03-08T00:09:24;6.90;99.90
26081;DHT22;13991;51.174;4.438;2024-03-08T00:11:52;7.00;99.90
26081;DHT22;13991;51.174;4.438;2024-03-08T00:14:18;6.90;99.90
26081;DHT22;13991;51.174;4.438;2024-03-08T00:16:44;6.90;99.90
26081;DHT22;13991;51.174;4.438;2024-03-08T00:19:10;6.90;99.90
26081;DHT22;13991;51.174;4.438;2024-03-08T00:21:35;7.00;99.90
26081;DHT22;13991;51.174;4.438;2024-03-08T00:24:01;6.80;99.90
26081;DHT22;13991;51.174;4.438;2024-03-08T00:26:27;6.70;99.90
26081;DHT22;13991;51.174;4.438;2024-03-08T00:28:54;6.80;99.90
26081;DHT22;13991;51.174;4.438;2024-03-08T00:31:20;6.90;99.90
26081;DHT22;13991;51.174;4.438;2024-03-08T00:33:45;6.80;99.90
26081;DHT22;13991;51.174;4.438;2024-03-08T00:36:11;6.70;99.90
26081;DHT22;13991;51.174;4.438;2024-03-08T00:38:37;6.50;99.90
26081;DHT22;13991;51.174;4.438;2024-03-08T00:41:03;6.50;99.90
26081;DHT22;13991;51.174;4.438;2024-03-08T00:43:29;6.50;99.90
26081;DHT22;13991;51.174;4.438;2024-03-08T00:45:57;6.60;99.90
26081;DHT22;13991;51.174;4.438;2024-03-08T00:48:23;6.50;99.90
26081;DHT22;13991;51.174;4.438;2024-03-08T00:50:49;6.60;99.90
26081;DHT22;13991;51.174;4.438;2024-03-08T00:53:15;6.70;99.90
26081;DHT22;13991;51.174;4.438;2024-03-08T00:55:41;6.70;99.90
26081;DHT22;13991;51.174;4.438;2024-03-08T00:58:06;6.60;99.90
26081;DHT22;13991;51.174;4.438;2024-03-08T01:00:33;6.50;99.90
26081;DHT22;13991;51.174;4.438;2024-03-08T01:02:59;6.50;99.90
26081;DHT22;13991;51.174;4.438;2024-03-08T01:05:25;6.40;99.90
26081;DHT22;13991;51.174;4.438;2024-03-08T01:07:51;6.50;99.90
26081;DHT22;13991;51.174;4.438;2024-03-08T01:10:16;6.50;99.90
26081;DHT22;13991;51.174;4.438;2024-03-08T01:12:42;6.50;99.90
26081;DHT22;13991;51.174;4.438;2024-03-08T01:15:11;6.50;99.90
26081;DHT22;13991;51.174;4.438;2024-03-08T01:17:37;6.50;99.90
26081;DHT22;13991;51.174;4.438;2024-03-08T01:20:04;6.40;99.90
26081;DHT22;13991;51.174;4.438;2024-03-08T01:22:30;6.40;99.90
26081;DHT22;13991;51.174;4.438;2024-03-08T01:24:56;6.40;99.90
26081;DHT22;13991;51.174;4.438;2024-03-08T01:27:22;6.40;99.90
26081;DHT22;13991;51.174;4.438;2024-03-08T01:29:48;6.30;99.90
26081;DHT22;13991;51.174;4.438;2024-03-08T01:32:14;6.40;99.90
26081;DHT22;13991;51.174;4.438;2024-03-08T01:34:40;6.20;99.90
26081;DHT22;13991;51.174;4.438;2024-03-08T01:37:06;6.20;99.90
26081;DHT22;13991;51.174;4.438;2024-03-08T01:39:32;6.10;99.90
26081;DHT22;13991;51.174;4.438;2024-03-08T01:41:58;6.30;99.90
26081;DHT22;13991;51.174;4.438;2024-03-08T01:44:24;6.20;99.90
26081;DHT22;13991;51.174;4.438;2024-03-08T01:46:50;6.30;99.90
26081;DHT22;13991;51.174;4.438;2024-03-08T01:49:18;6.10;99.90
26081;DHT22;13991;51.174;4.438;2024-03-08T01:51:46;6.10;99.90
26081;DHT22;13991;51.174;4.438;2024-03-08T01:54:14;6.00;99.90
26081;DHT22;13991;51.174;4.438;2024-03-08T01:56:40;6.10;99.90
26081;DHT22;13991;51.174;4.438;2024-03-08T01:59:07;6.10;99.90
26081;DHT22;13991;51.174;4.438;2024-03-08T02:01:33;6.20;99.90
26081;DHT22;13991;51.174;4.438;2024-03-08T02:04:03;6.20;99.90
26081;DHT22;13991;51.174;4.438;2024-03-08T02:06:31;6.20;99.90
26081;DHT22;13991;51.174;4.438;2024-03-08T02:08:57;6.20;99.90
26081;DHT22;13991;51.174;4.438;2024-03-08T02:11:22;6.10;99.90
26081;DHT22;13991;51.174;4.438;2024-03-08T02:13:48;6.20;99.90
26081;DHT22;13991;51.174;4.438;2024-03-08T02:16:20;6.30;99.90
26081;DHT22;13991;51.174;4.438;2024-03-08T02:18:46;6.30;99.90
26081;DHT22;13991;51.174;4.438;2024-03-08T02:21:12;6.40;99.90
26081;DHT22;13991;51.174;4.438;2024-03-08T02:23:39;6.40;99.90
26081;DHT22;13991;51.174;4.438;2024-03-08T02:26:05;6.20;99.90
26081;DHT22;13991;51.174;4.438;2024-03-08T02:28:33;6.10;99.90
26081;DHT22;13991;51.174;4.438;2024-03-08T02:30:59;6.10;99.90
26081;DHT22;13991;51.174;4.438;2024-03-08T02:33:27;6.00;99.90
26081;DHT22;13991;51.174;4.438;2024-03-08T02:35:54;5.90;99.90
26081;DHT22;13991;51.174;4.438;2024-03-08T02:38:22;5.90;99.90
26081;DHT22;13991;51.174;4.438;2024-03-08T02:40:51;5.80;99.90
26081;DHT22;13991;51.174;4.438;2024-03-08T02:43:18;5.70;99.90
26081;DHT22;13991;51.174;4.438;2024-03-08T02:45:44;5.60;99.90
26081;DHT22;13991;51.174;4.438;2024-03-08T02:48:11;5.70;99.90
26081;DHT22;13991;51.174;4.438;2024-03-08T02:50:38;5.80;99.90
26081;DHT22;13991;51.174;4.438;2024-03-08T02:53:06;5.80;99.90
26081;DHT22;13991;51.174;4.438;2024-03-08T02:55:32;5.70;99.90
26081;DHT22;13991;51.174;4.438;2024-03-08T02:58:01;5.80;99.90
26081;DHT22;13991;51.174;4.438;2024-03-08T03:00:28;5.80;99.90
26081;DHT22;13991;51.174;4.438;2024-03-08T03:02:56;5.90;99.90
26081;DHT22;13991;51.174;4.438;2024-03-08T03:05:23;6.00;99.90
26081;DHT22;13991;51.174;4.438;2024-03-08T03:07:49;6.00;99.90
26081;DHT22;13991;51.174;4.438;2024-03-08T03:10:18;5.90;99.90
26081;DHT22;13991;51.174;4.438;2024-03-08T03:12:45;5.80;99.90
26081;DHT22;13991;51.174;4.438;2024-03-08T03:15:19;5.70;99.90
26081;DHT22;13991;51.174;4.438;2024-03-08T03:17:50;5.60;99.90
26081;DHT22;13991;51.174;4.438;2024-03-08T03:20:17;5.70;99.90
26081;DHT22;13991;51.174;4.438;2024-03-08T03:22:49;5.60;99.90
26081;DHT22;13991;51.174;4.438;2024-03-08T03:25:21;5.50;99.90
26081;DHT22;13991;51.174;4.438;2024-03-08T03:28:03;5.60;99.90
26081;DHT22;13991;51.174;4.438;2024-03-08T03:30:30;5.50;99.90
26081;DHT22;13991;51.174;4.438;2024-03-08T03:32:59;5.60;99.90
26081;DHT22;13991;51.174;4.438;2024-03-08T03:35:27;5.60;99.90
26081;DHT22;13991;51.174;4.438;2024-03-08T03:37:53;5.60;99.90
26081;DHT22;13991;51.174;4.438;2024-03-08T03:40:35;5.60;99.90
26081;DHT22;13991;51.174;4.438;2024-03-08T03:43:02;5.60;99.90
26081;DHT22;13991;51.174;4.438;2024-03-08T03:45:28;5.70;99.90
26081;DHT22;13991;51.174;4.438;2024-03-08T03:47:54;5.60;99.90
26081;DHT22;13991;51.174;4.438;2024-03-08T03:50:21;5.50;99.90
26081;DHT22;13991;51.174;4.438;2024-03-08T03:52:47;5.40;99.90
26081;DHT22;13991;51.174;4.438;2024-03-08T03:55:14;5.50;99.90
26081;DHT22;13991;51.174;4.438;2024-03-08T03:57:40;5.40;99.90
26081;DHT22;13991;51.174;4.438;2024-03-08T04:00:11;5.50;99.90
26081;DHT22;13991;51.174;4.438;2024-03-08T04:02:38;5.50;99.90
26081;DHT22;13991;51.174;4.438;2024-03-08T04:05:05;5.40;99.90
26081;DHT22;13991;51.174;4.438;2024-03-08T04:07:31;5.30;99.90
26081;DHT22;13991;51.174;4.438;2024-03-08T04:09:57;5.20;99.90
26081;DHT22;13991;51.174;4.438;2024-03-08T04:12:22;5.30;99.90
26081;DHT22;13991;51.174;4.438;2024-03-08T04:14:48;5.30;99.90
26081;DHT22;13991;51.174;4.438;2024-03-08T04:17:14;5.40;99.90
26081;DHT22;13991;51.174;4.438;2024-03-08T04:19:39;5.30;99.90
26081;DHT22;13991;51.174;4.438;2024-03-08T04:22:06;5.30;99.90
26081;DHT22;13991;51.174;4.438;2024-03-08T04:24:33;5.30;99.90
26081;DHT22;13991;51.174;4.438;2024-03-08T04:26:59;5.30;99.90
26081;DHT22;13991;51.174;4.438;2024-03-08T04:29:24;5.30;99.90
26081;DHT22;13991;51.174;4.438;2024-03-08T04:31:50;5.30;99.90
26081;DHT22;13991;51.174;4.438;2024-03-08T04:34:20;5.20;99.90
26081;DHT22;13991;51.174;4.438;2024-03-08T04:36:47;5.10;99.90
26081;DHT22;13991;51.174;4.438;2024-03-08T04:39:13;5.20;99.90
26081;DHT22;13991;51.174;4.438;2024-03-08T04:41:39;5.30;99.90
26081;DHT22;13991;51.174;4.438;2024-03-08T04:44:05;5.20;99.90
26081;DHT22;13991;51.174;4.438;2024-03-08T04:46:31;5.30;99.90
26081;DHT22;13991;51.174;4.438;2024-03-08T04:48:57;5.30;99.90
26081;DHT22;13991;51.174;4.438;2024-03-08T04:51:25;5.30;99.90
26081;DHT22;13991;51.174;4.438;2024-03-08T04:53:50;5.30;99.90
26081;DHT22;13991;51.174;4.438;2024-03-08T04:56:16;5.30;99.90
26081;DHT22;13991;51.174;4.438;2024-03-08T04:58:45;5.30;99.90
26081;DHT22;13991;51.174;4.438;2024-03-08T05:01:12;5.30;99.90
26081;DHT22;13991;51.174;4.438;2024-03-08T05:03:38;5.20;99.90
26081;DHT22;13991;51.174;4.438;2024-03-08T05:06:04;5.10;99.90
26081;DHT22;13991;51.174;4.438;2024-03-08T05:08:30;5.10;99.90
26081;DHT22;13991;51.174;4.438;2024-03-08T05:10:56;5.10;99.90
26081;DHT22;13991;51.174;4.438;2024-03-08T05:13:22;5.20;99.90
26081;DHT22;13991;51.174;4.438;2024-03-08T05:15:49;5.20;99.90
26081;DHT22;13991;51.174;4.438;2024-03-08T05:18:16;5.10;99.90
26081;DHT22;13991;51.174;4.438;2024-03-08T05:20:42;5.00;99.90
26081;DHT22;13991;51.174;4.438;2024-03-08T05:23:07;5.00;99.90
26081;DHT22;13991;51.174;4.438;2024-03-08T05:25:33;5.00;99.90
26081;DHT22;13991;51.174;4.438;2024-03-08T05:27:59;5.00;99.90
26081;DHT22;13991;51.174;4.438;2024-03-08T05:30:25;4.90;99.90
26081;DHT22;13991;51.174;4.438;2024-03-08T05:32:50;4.80;99.90
26081;DHT22;13991;51.174;4.438;2024-03-08T05:35:16;4.90;99.90
26081;DHT22;13991;51.174;4.438;2024-03-08T05:37:42;4.90;99.90
26081;DHT22;13991;51.174;4.438;2024-03-08T05:40:08;4.80;99.90
26081;DHT22;13991;51.174;4.438;2024-03-08T05:42:38;4.90;99.90
26081;DHT22;13991;51.174;4.438;2024-03-08T05:45:04;5.00;99.90
26081;DHT22;13991;51.174;4.438;2024-03-08T05:47:32;5.00;99.90
26081;DHT22;13991;51.174;4.438;2024-03-08T05:49:58;4.90;99.90
26081;DHT22;13991;51.174;4.438;2024-03-08T05:52:25;4.90;99.90
26081;DHT22;13991;51.174;4.438;2024-03-08T05:54:51;4.90;99.90
26081;DHT22;13991;51.174;4.438;2024-03-08T05:57:17;5.00;99.90
26081;DHT22;13991;51.174;4.438;2024-03-08T05:59:43;4.90;99.90
26081;DHT22;13991;51.174;4.438;2024-03-08T06:02:08;4.70;99.90
26081;DHT22;13991;51.174;4.438;2024-03-08T06:04:34;4.70;99.90
26081;DHT22;13991;51.174;4.438;2024-03-08T06:07:00;4.80;99.90
26081;DHT22;13991;51.174;4.438;2024-03-08T06:09:28;4.80;99.90
26081;DHT22;13991;51.174;4.438;2024-03-08T06:11:54;4.80;99.90
26081;DHT22;13991;51.174;4.438;2024-03-08T06:14:20;4.70;99.90
26081;DHT22;13991;51.174;4.438;2024-03-08T06:16:46;4.70;99.90
26081;DHT22;13991;51.174;4.438;2024-03-08T06:19:13;4.70;99.90
26081;DHT22;13991;51.174;4.438;2024-03-08T06:21:39;4.60;99.90
26081;DHT22;13991;51.174;4.438;2024-03-08T06:24:05;4.60;99.90
26081;DHT22;13991;51.174;4.438;2024-03-08T06:26:31;4.60;99.90
26081;DHT22;13991;51.174;4.438;2024-03-08T06:28:57;4.70;99.90
26081;DHT22;13991;51.174;4.438;2024-03-08T06:31:22;4.70;99.90
26081;DHT22;13991;51.174;4.438;2024-03-08T06:33:48;4.60;99.90
26081;DHT22;13991;51.174;4.438;2024-03-08T06:36:19;4.60;99.90
26081;DHT22;13991;51.174;4.438;2024-03-08T06:38:48;4.70;99.90
26081;DHT22;13991;51.174;4.438;2024-03-08T06:41:14;4.80;99.90
26081;DHT22;13991;51.174;4.438;2024-03-08T06:43:45;4.80;99.90
26081;DHT22;13991;51.174;4.438;2024-03-08T06:46:11;4.80;99.90
26081;DHT22;13991;51.174;4.438;2024-03-08T06:48:41;4.70;99.90
26081;DHT22;13991;51.174;4.438;2024-03-08T06:51:07;4.90;99.90
26081;DHT22;13991;51.174;4.438;2024-03-08T06:53:33;4.90;99.90
26081;DHT22;13991;51.174;4.438;2024-03-08T06:56:01;5.00;99.90
26081;DHT22;13991;51.174;4.438;2024-03-08T06:58:27;5.00;99.90
26081;DHT22;13991;51.174;4.438;2024-03-08T07:00:53;5.00;99.90
26081;DHT22;13991;51.174;4.438;2024-03-08T07:03:19;5.00;99.90
26081;DHT22;13991;51.174;4.438;2024-03-08T07:05:47;4.90;99.90
26081;DHT22;13991;51.174;4.438;2024-03-08T07:08:13;5.00;99.90
26081;DHT22;13991;51.174;4.438;2024-03-08T07:10:39;5.10;99.90
26081;DHT22;13991;51.174;4.438;2024-03-08T07:13:08;5.10;99.90
26081;DHT22;13991;51.174;4.438;2024-03-08T07:15:33;5.20;99.90
26081;DHT22;13991;51.174;4.438;2024-03-08T07:18:01;5.20;99.90
26081;DHT22;13991;51.174;4.438;2024-03-08T07:20:27;5.30;99.90
26081;DHT22;13991;51.174;4.438;2024-03-08T07:22:54;5.20;99.90
26081;DHT22;13991;51.174;4.438;2024-03-08T07:27:56;5.20;99.90
26081;DHT22;13991;51.174;4.438;2024-03-08T07:30:23;5.20;99.90
26081;DHT22;13991;51.174;4.438;2024-03-08T07:33:08;5.00;99.90
26081;DHT22;13991;51.174;4.438;2024-03-08T07:35:37;5.00;99.90
26081;DHT22;13991;51.174;4.438;2024-03-08T07:38:12;5.20;99.90
26081;DHT22;13991;51.174;4.438;2024-03-08T07:40:39;5.40;99.90
26081;DHT22;13991;51.174;4.438;2024-03-08T07:43:12;5.50;99.90
26081;DHT22;13991;51.174;4.438;2024-03-08T07:45:38;5.40;99.90
26081;DHT22;13991;51.174;4.438;2024-03-08T07:48:04;5.60;99.90
26081;DHT22;13991;51.174;4.438;2024-03-08T07:50:41;5.70;99.90
26081;DHT22;13991;51.174;4.438;2024-03-08T07:53:10;5.50;99.90
26081;DHT22;13991;51.174;4.438;2024-03-08T07:55:36;5.70;99.90
26081;DHT22;13991;51.174;4.438;2024-03-08T07:58:02;5.80;99.90
26081;DHT22;13991;51.174;4.438;2024-03-08T08:00:31;5.80;99.90
26081;DHT22;13991;51.174;4.438;2024-03-08T08:02:58;5.90;99.90
26081;DHT22;13991;51.174;4.438;2024-03-08T08:05:24;5.80;99.90
26081;DHT22;13991;51.174;4.438;2024-03-08T08:07:49;5.90;99.90
26081;DHT22;13991;51.174;4.438;2024-03-08T08:10:17;5.90;99.90
26081;DHT22;13991;51.174;4.438;2024-03-08T08:12:50;5.80;99.90
26081;DHT22;13991;51.174;4.438;2024-03-08T08:15:19;6.00;99.90
26081;DHT22;13991;51.174;4.438;2024-03-08T08:17:45;6.00;99.90
26081;DHT22;13991;51.174;4.438;2024-03-08T08:20:12;6.20;99.90
26081;DHT22;13991;51.174;4.438;2024-03-08T08:22:42;6.40;99.90
26081;DHT22;13991;51.174;4.438;2024-03-08T08:25:11;6.40;99.90
26081;DHT22;13991;51.174;4.438;2024-03-08T08:27:38;6.30;99.90
26081;DHT22;13991;51.174;4.438;2024-03-08T08:30:11;6.50;99.90
26081;DHT22;13991;51.174;4.438;2024-03-08T08:32:37;6.50;99.90
26081;DHT22;13991;51.174;4.438;2024-03-08T08:35:05;6.50;99.90
26081;DHT22;13991;51.174;4.438;2024-03-08T08:37:31;6.60;99.90
26081;DHT22;13991;51.174;4.438;2024-03-08T08:39:58;6.80;99.90
26081;DHT22;13991;51.174;4.438;2024-03-08T08:42:24;6.80;99.90
26081;DHT22;13991;51.174;4.438;2024-03-08T08:44:50;7.00;99.90
26081;DHT22;13991;51.174;4.438;2024-03-08T08:47:16;6.80;99.90
26081;DHT22;13991;51.174;4.438;2024-03-08T08:49:45;6.90;99.90
26081;DHT22;13991;51.174;4.438;2024-03-08T08:52:16;7.00;99.90
26081;DHT22;13991;51.174;4.438;2024-03-08T08:54:42;7.10;99.90
26081;DHT22;13991;51.174;4.438;2024-03-08T08:57:10;7.30;99.90
26081;DHT22;13991;51.174;4.438;2024-03-08T08:59:36;7.30;99.90
26081;DHT22;13991;51.174;4.438;2024-03-08T09:02:02;7.40;99.90
26081;DHT22;13991;51.174;4.438;2024-03-08T09:04:29;7.50;99.90
26081;DHT22;13991;51.174;4.438;2024-03-08T09:06:56;7.50;99.90
26081;DHT22;13991;51.174;4.438;2024-03-08T09:09:22;7.60;99.90
26081;DHT22;13991;51.174;4.438;2024-03-08T09:11:48;7.40;99.90
26081;DHT22;13991;51.174;4.438;2024-03-08T09:14:15;7.50;99.90
26081;DHT22;13991;51.174;4.438;2024-03-08T09:16:41;7.60;99.90
26081;DHT22;13991;51.174;4.438;2024-03-08T09:19:06;7.60;99.90
26081;DHT22;13991;51.174;4.438;2024-03-08T09:21:33;7.50;99.90
26081;DHT22;13991;51.174;4.438;2024-03-08T09:24:00;7.50;99.90
26081;DHT22;13991;51.174;4.438;2024-03-08T09:26:26;7.70;99.90
26081;DHT22;13991;51.174;4.438;2024-03-08T09:28:52;7.80;99.90
26081;DHT22;13991;51.174;4.438;2024-03-08T09:31:20;7.80;99.90
26081;DHT22;13991;51.174;4.438;2024-03-08T09:33:46;8.00;99.90
26081;DHT22;13991;51.174;4.438;2024-03-08T09:36:13;8.20;99.90
26081;DHT22;13991;51.174;4.438;2024-03-08T09:38:39;8.30;99.90
26081;DHT22;13991;51.174;4.438;2024-03-08T09:41:05;8.50;99.90
26081;DHT22;13991;51.174;4.438;2024-03-08T09:43:31;8.50;99.90
26081;DHT22;13991;51.174;4.438;2024-03-08T09:45:58;8.50;99.90
26081;DHT22;13991;51.174;4.438;2024-03-08T09:48:24;8.70;99.90
26081;DHT22;13991;51.174;4.438;2024-03-08T09:50:51;8.70;99.90
26081;DHT22;13991;51.174;4.438;2024-03-08T09:53:17;8.70;99.90
26081;DHT22;13991;51.174;4.438;2024-03-08T09:55:43;8.70;99.90
26081;DHT22;13991;51.174;4.438;2024-03-08T09:58:12;8.70;99.90
26081;DHT22;13991;51.174;4.438;2024-03-08T10:00:53;8.90;99.90
26081;DHT22;13991;51.174;4.438;2024-03-08T10:03:20;9.00;99.90
26081;DHT22;13991;51.174;4.438;2024-03-08T10:05:45;9.10;99.90
26081;DHT22;13991;51.174;4.438;2024-03-08T10:08:12;9.00;99.90
26081;DHT22;13991;51.174;4.438;2024-03-08T10:10:39;9.00;99.90
26081;DHT22;13991;51.174;4.438;2024-03-08T10:13:08;9.20;99.90
26081;DHT22;13991;51.174;4.438;2024-03-08T10:15:35;9.40;99.90
26081;DHT22;13991;51.174;4.438;2024-03-08T10:18:01;9.20;99.90
26081;DHT22;13991;51.174;4.438;2024-03-08T10:20:32;9.20;99.90
26081;DHT22;13991;51.174;4.438;2024-03-08T10:23:02;9.50;99.90
26081;DHT22;13991;51.174;4.438;2024-03-08T10:25:30;9.60;99.90
26081;DHT22;13991;51.174;4.438;2024-03-08T10:27:56;9.60;99.90
26081;DHT22;13991;51.174;4.438;2024-03-08T10:30:22;9.60;99.90
26081;DHT22;13991;51.174;4.438;2024-03-08T10:32:49;9.90;99.90
26081;DHT22;13991;51.174;4.438;2024-03-08T10:35:15;10.10;99.90
26081;DHT22;13991;51.174;4.438;2024-03-08T10:37:49;10.10;99.90
26081;DHT22;13991;51.174;4.438;2024-03-08T10:40:24;10.20;99.90
26081;DHT22;13991;51.174;4.438;2024-03-08T10:42:54;10.30;99.90
26081;DHT22;13991;51.174;4.438;2024-03-08T10:45:39;10.50;99.90
26081;DHT22;13991;51.174;4.438;2024-03-08T10:48:31;10.40;99.90
26081;DHT22;13991;51.174;4.438;2024-03-08T10:51:00;10.50;99.90
26081;DHT22;13991;51.174;4.438;2024-03-08T10:53:28;10.30;99.90
26081;DHT22;13991;51.174;4.438;2024-03-08T10:55:56;10.50;99.90
26081;DHT22;13991;51.174;4.438;2024-03-08T10:58:25;10.50;99.90
26081;DHT22;13991;51.174;4.438;2024-03-08T11:00:54;10.60;99.90
26081;DHT22;13991;51.174;4.438;2024-03-08T11:06:15;10.30;99.90
26081;DHT22;13991;51.174;4.438;2024-03-08T11:08:41;10.50;99.90
26081;DHT22;13991;51.174;4.438;2024-03-08T11:13:55;10.70;99.90
26081;DHT22;13991;51.174;4.438;2024-03-08T11:19:01;10.90;99.90
26081;DHT22;13991;51.174;4.438;2024-03-08T11:21:34;10.80;99.90
26081;DHT22;13991;51.174;4.438;2024-03-08T11:24:07;10.90;99.90
26081;DHT22;13991;51.174;4.438;2024-03-08T11:26:37;10.90;99.90
26081;DHT22;13991;51.174;4.438;2024-03-08T11:32:08;11.10;99.90
26081;DHT22;13991;51.174;4.438;2024-03-08T11:34:35;10.90;99.90
26081;DHT22;13991;51.174;4.438;2024-03-08T11:37:03;10.90;99.90
26081;DHT22;13991;51.174;4.438;2024-03-08T11:39:30;11.10;99.90
26081;DHT22;13991;51.174;4.438;2024-03-08T11:41:56;11.00;99.90
26081;DHT22;13991;51.174;4.438;2024-03-08T11:44:26;11.30;99.90
26081;DHT22;13991;51.174;4.438;2024-03-08T11:46:53;11.40;99.90
26081;DHT22;13991;51.174;4.438;2024-03-08T11:49:19;11.30;99.90
26081;DHT22;13991;51.174;4.438;2024-03-08T11:51:46;11.50;99.90
26081;DHT22;13991;51.174;4.438;2024-03-08T11:54:13;11.50;99.90
26081;DHT22;13991;51.174;4.438;2024-03-08T11:56:39;11.50;99.90
26081;DHT22;13991;51.174;4.438;2024-03-08T11:59:11;11.60;99.90
26081;DHT22;13991;51.174;4.438;2024-03-08T12:01:38;11.80;99.90
26081;DHT22;13991;51.174;4.438;2024-03-08T12:04:04;11.90;99.90
26081;DHT22;13991;51.174;4.438;2024-03-08T12:06:41;11.90;99.90
26081;DHT22;13991;51.174;4.438;2024-03-08T12:09:13;12.00;99.90
26081;DHT22;13991;51.174;4.438;2024-03-08T12:11:40;12.10;99.90
26081;DHT22;13991;51.174;4.438;2024-03-08T12:14:06;12.10;99.90
26081;DHT22;13991;51.174;4.438;2024-03-08T12:16:32;12.10;99.90
26081;DHT22;13991;51.174;4.438;2024-03-08T12:18:59;12.20;99.90
26081;DHT22;13991;51.174;4.438;2024-03-08T12:21:26;12.40;99.90
26081;DHT22;13991;51.174;4.438;2024-03-08T12:24:05;12.10;99.90
26081;DHT22;13991;51.174;4.438;2024-03-08T12:26:38;12.00;99.90
26081;DHT22;13991;51.174;4.438;2024-03-08T12:29:24;11.90;99.90
26081;DHT22;13991;51.174;4.438;2024-03-08T12:31:55;12.00;99.90
26081;DHT22;13991;51.174;4.438;2024-03-08T12:34:23;11.90;99.90
26081;DHT22;13991;51.174;4.438;2024-03-08T12:36:51;12.10;99.90
26081;DHT22;13991;51.174;4.438;2024-03-08T12:39:21;12.30;99.90
26081;DHT22;13991;51.174;4.438;2024-03-08T12:41:53;12.20;99.90
26081;DHT22;13991;51.174;4.438;2024-03-08T12:44:20;12.20;99.90
26081;DHT22;13991;51.174;4.438;2024-03-08T12:46:50;12.30;99.90
26081;DHT22;13991;51.174;4.438;2024-03-08T12:49:17;12.20;99.90
26081;DHT22;13991;51.174;4.438;2024-03-08T12:51:48;12.40;99.90
26081;DHT22;13991;51.174;4.438;2024-03-08T12:54:13;12.20;99.90
26081;DHT22;13991;51.174;4.438;2024-03-08T12:56:39;12.10;99.90
26081;DHT22;13991;51.174;4.438;2024-03-08T12:59:08;12.20;99.90
26081;DHT22;13991;51.174;4.438;2024-03-08T13:01:35;12.20;99.90
26081;DHT22;13991;51.174;4.438;2024-03-08T13:04:04;12.40;99.90
26081;DHT22;13991;51.174;4.438;2024-03-08T13:06:32;12.80;99.90
26081;DHT22;13991;51.174;4.438;2024-03-08T13:08:58;12.70;99.90
26081;DHT22;13991;51.174;4.438;2024-03-08T13:11:26;12.70;99.90
26081;DHT22;13991;51.174;4.438;2024-03-08T13:13:52;12.80;99.90
26081;DHT22;13991;51.174;4.438;2024-03-08T13:16:18;12.70;99.90
26081;DHT22;13991;51.174;4.438;2024-03-08T13:18:45;12.50;99.90
26081;DHT22;13991;51.174;4.438;2024-03-08T13:21:14;12.40;99.90
26081;DHT22;13991;51.174;4.438;2024-03-08T13:23:41;12.40;99.90
26081;DHT22;13991;51.174;4.438;2024-03-08T13:26:11;12.50;99.90
26081;DHT22;13991;51.174;4.438;2024-03-08T13:28:46;12.60;99.90
26081;DHT22;13991;51.174;4.438;2024-03-08T13:31:12;12.50;99.90
26081;DHT22;13991;51.174;4.438;2024-03-08T13:33:38;12.60;99.90
26081;DHT22;13991;51.174;4.438;2024-03-08T13:36:12;12.90;99.90
26081;DHT22;13991;51.174;4.438;2024-03-08T13:38:46;13.20;99.90
26081;DHT22;13991;51.174;4.438;2024-03-08T13:41:16;13.00;99.90
26081;DHT22;13991;51.174;4.438;2024-03-08T13:43:46;13.10;99.90
26081;DHT22;13991;51.174;4.438;2024-03-08T13:46:12;13.10;99.90
26081;DHT22;13991;51.174;4.438;2024-03-08T13:48:38;13.10;99.90
26081;DHT22;13991;51.174;4.438;2024-03-08T13:51:07;13.00;99.90
26081;DHT22;13991;51.174;4.438;2024-03-08T13:53:35;12.90;99.90
26081;DHT22;13991;51.174;4.438;2024-03-08T13:56:04;12.90;99.90
26081;DHT22;13991;51.174;4.438;2024-03-08T13:58:36;13.00;99.90
26081;DHT22;13991;51.174;4.438;2024-03-08T14:01:02;13.00;99.90
26081;DHT22;13991;51.174;4.438;2024-03-08T14:03:28;13.00;99.90
26081;DHT22;13991;51.174;4.438;2024-03-08T14:05:54;13.20;99.90
26081;DHT22;13991;51.174;4.438;2024-03-08T14:08:21;13.40;99.90
26081;DHT22;13991;51.174;4.438;2024-03-08T14:10:47;13.60;99.90
26081;DHT22;13991;51.174;4.438;2024-03-08T14:13:14;13.50;99.90
26081;DHT22;13991;51.174;4.438;2024-03-08T14:15:44;13.50;99.90
26081;DHT22;13991;51.174;4.438;2024-03-08T14:18:11;13.20;99.90
26081;DHT22;13991;51.174;4.438;2024-03-08T14:20:38;13.20;99.90
26081;DHT22;13991;51.174;4.438;2024-03-08T14:23:04;13.30;99.90
26081;DHT22;13991;51.174;4.438;2024-03-08T14:25:33;13.60;99.90
26081;DHT22;13991;51.174;4.438;2024-03-08T14:27:59;13.60;99.90
26081;DHT22;13991;51.174;4.438;2024-03-08T14:30:33;13.30;99.90
26081;DHT22;13991;51.174;4.438;2024-03-08T14:33:08;13.30;99.90
26081;DHT22;13991;51.174;4.438;2024-03-08T14:35:40;13.40;99.90
26081;DHT22;13991;51.174;4.438;2024-03-08T14:38:05;13.40;99.90
26081;DHT22;13991;51.174;4.438;2024-03-08T14:40:34;13.50;99.90
26081;DHT22;13991;51.174;4.438;2024-03-08T14:43:00;13.70;99.90
26081;DHT22;13991;51.174;4.438;2024-03-08T14:45:26;13.50;99.90
26081;DHT22;13991;51.174;4.438;2024-03-08T14:47:52;13.40;99.90
26081;DHT22;13991;51.174;4.438;2024-03-08T14:50:22;13.50;99.90
26081;DHT22;13991;51.174;4.438;2024-03-08T14:52:54;13.40;99.90
26081;DHT22;13991;51.174;4.438;2024-03-08T14:55:24;13.40;99.90
26081;DHT22;13991;51.174;4.438;2024-03-08T14:57:51;13.40;99.90
26081;DHT22;13991;51.174;4.438;2024-03-08T15:00:19;13.30;99.90
26081;DHT22;13991;51.174;4.438;2024-03-08T15:03:11;13.30;99.90
26081;DHT22;13991;51.174;4.438;2024-03-08T15:05:41;13.30;99.90
26081;DHT22;13991;51.174;4.438;2024-03-08T15:08:12;13.20;99.90
26081;DHT22;13991;51.174;4.438;2024-03-08T15:10:47;13.10;99.90
26081;DHT22;13991;51.174;4.438;2024-03-08T15:13:20;13.30;99.90
26081;DHT22;13991;51.174;4.438;2024-03-08T15:15:53;13.40;99.90
26081;DHT22;13991;51.174;4.438;2024-03-08T15:18:25;13.30;99.90
26081;DHT22;13991;51.174;4.438;2024-03-08T15:20:53;13.20;99.90
26081;DHT22;13991;51.174;4.438;2024-03-08T15:23:19;13.00;99.90
26081;DHT22;13991;51.174;4.438;2024-03-08T15:25:47;13.20;99.90
26081;DHT22;13991;51.174;4.438;2024-03-08T15:28:15;13.30;99.90
26081;DHT22;13991;51.174;4.438;2024-03-08T15:30:43;13.20;99.90
26081;DHT22;13991;51.174;4.438;2024-03-08T15:33:12;13.30;99.90
26081;DHT22;13991;51.174;4.438;2024-03-08T15:35:41;13.00;99.90
26081;DHT22;13991;51.174;4.438;2024-03-08T15:38:07;13.10;99.90
26081;DHT22;13991;51.174;4.438;2024-03-08T15:40:33;13.00;99.90
26081;DHT22;13991;51.174;4.438;2024-03-08T15:43:00;13.10;99.90
26081;DHT22;13991;51.174;4.438;2024-03-08T15:45:26;13.00;99.90
26081;DHT22;13991;51.174;4.438;2024-03-08T15:47:53;13.00;99.90
26081;DHT22;13991;51.174;4.438;2024-03-08T15:50:19;13.00;99.90
26081;DHT22;13991;51.174;4.438;2024-03-08T15:52:48;13.20;99.90
26081;DHT22;13991;51.174;4.438;2024-03-08T15:55:19;13.40;99.90
26081;DHT22;13991;51.174;4.438;2024-03-08T15:57:53;13.30;99.90